Latest Weather Observations for Townsville Air Weapons Range (Defence)

IDQ60801

Issued at 10:22 am EST Tuesday 7 December 2021 (issued every 10 minutes, with the page automatically refreshed every 10 minutes)

About weather observations | Map of weather stations | Latest weather observations for QLD | Other Formats
Station Details ID: 032196 Name: TOWNSVILLE- AIR WEAPONS RANGE (DEFENCE) Lat: -19.30 Lon: 146.24 Height: 385.45 m
Data from the previous 72 hours. | See also: Recent months at Townsville Air Weapons Range (Defence)
Date/Time
EST
Temp
°C
App
Temp
°C
Dew
Point
°C
Rel
Hum
%
Delta-T
°C
Wind Press
QNH
hPa
Press
MSL
hPa
Rain since
9am
mm
Dir  Spd
km/h
Gust
km/h
Spd
kts
Gust
kts
07/10:00am 30.0 30.8 18.1 49 7.7 ESE 11 24 6 13 - - 0.0
07/09:30am 29.5 29.1 18.0 50 7.5 E 17 26 9 14 - - 0.0
07/09:00am 29.2 29.8 18.6 52 6.9 ENE 13 20 7 11 - - -
07/08:30am 26.7 27.4 18.8 62 5.1 ENE 13 22 7 12 - - -
07/08:00am 26.4 27.2 19.0 63 4.8 ENE 13 22 7 12 - - -
07/07:30am 27.4 28.6 20.0 64 4.9 ENE 13 19 7 10 - - -
07/07:00am 25.6 28.1 20.2 72 3.6 E 7 13 4 7 - - -
07/06:30am 23.9 26.5 20.0 79 2.6 ENE 6 7 3 4 - - -
07/06:00am 22.7 25.3 20.0 85 1.8 ENE 6 9 3 5 - - -
07/05:30am 22.3 24.8 19.8 86 1.6 ESE 6 7 3 4 - - -
07/05:00am 22.6 25.1 19.8 84 1.8 ESE 6 7 3 4 - - -
07/04:30am 22.8 26.0 19.8 83 2.0 ESE 2 6 1 3 - - -
07/04:00am 23.0 25.0 20.0 83 2.0 E 9 13 5 7 - - -
07/03:30am 23.0 25.3 19.8 82 2.1 ESE 7 11 4 6 - - -
07/03:00am 23.2 26.0 19.6 80 2.3 E 4 7 2 4 - - 0.0
07/02:30am 23.3 25.6 19.5 79 2.5 ENE 6 9 3 5 - - -
07/02:00am 23.6 25.8 19.7 79 2.5 E 7 17 4 9 - - -
07/01:30am 23.8 24.9 19.7 78 2.7 E 13 24 7 13 - - -
07/01:00am 24.0 24.5 20.1 79 2.6 ENE 17 26 9 14 - - -
07/12:30am 24.1 25.1 20.2 79 2.6 ENE 15 26 8 14 - - -
07/12:00am 24.1 25.4 20.2 79 2.6 E 13 26 7 14 - - -
 
Date/Time
EST
Temp
°C
App
Temp
°C
Dew
Point
°C
Rel
Hum
%
Delta-T
°C
Wind Press
QNH
hPa
Press
MSL
hPa
Rain since
9am
mm
Dir  Spd
km/h
Gust
km/h
Spd
kts
Gust
kts
06/11:30pm 24.3 25.4 20.4 79 2.6 ENE 15 24 8 13 - - -
06/11:00pm 24.5 25.1 20.2 77 2.8 ENE 17 28 9 15 - - -
06/10:30pm 24.6 25.7 20.5 78 2.7 ENE 15 22 8 12 - - -
06/10:00pm 24.6 24.9 20.5 78 2.7 ENE 19 30 10 16 - - -
06/09:30pm 24.7 24.8 20.4 77 2.8 ENE 20 32 11 17 - - -
06/09:00pm 24.8 25.2 20.9 79 2.6 ENE 20 30 11 16 - - 0.0
06/08:30pm 24.9 26.2 20.8 78 2.7 ENE 15 22 8 12 - - -
06/08:00pm 25.0 25.8 20.7 77 2.9 ENE 17 28 9 15 - - -
06/07:30pm 25.1 26.0 20.1 74 3.3 ENE 15 20 8 11 - - -
06/07:00pm 25.6 26.3 19.7 70 3.9 NE 15 26 8 14 - - -
06/06:30pm 26.3 25.7 19.7 67 4.3 ENE 22 33 12 18 - - -
06/06:00pm 27.2 27.3 20.0 64 4.8 ENE 19 26 10 14 - - -
06/05:30pm 28.6 29.4 19.8 59 5.8 NE 15 28 8 15 - - -
06/05:00pm 29.4 28.9 20.0 57 6.3 ENE 22 32 12 17 - - -
06/04:30pm 29.6 29.1 19.0 53 7.0 ENE 20 32 11 17 - - -
06/04:00pm 30.8 30.1 19.5 51 7.5 ENE 22 33 12 18 - - -
06/03:30pm 32.0 31.5 18.6 45 8.8 NE 19 30 10 16 - - -
06/03:00pm 31.7 30.9 17.9 43 9.0 ENE 19 26 10 14 - - -
06/02:30pm 32.7 32.9 17.7 40 9.8 ENE 13 24 7 13 - - -
06/02:00pm 32.4 32.6 16.7 39 10.1 ENE 11 24 6 13 - - -
06/01:30pm 33.2 33.6 18.2 41 9.9 NE 13 22 7 12 - - -
06/11:30am - - - - - ENE 17 30 9 16 - - 0.0
06/11:00am - - - - - ENE 15 26 8 14 - - 0.0
06/10:30am - - - - - E 15 26 8 14 - - 0.0
06/10:00am - - - - - ENE 17 28 9 15 - - 0.0
06/09:30am - - - - - ENE 19 30 10 16 - - 0.0
06/09:00am - - - - - ENE 20 28 11 15 - - 0.0
06/08:30am - - - - - NE 17 22 9 12 - - 0.0
06/08:00am - - - - - ENE 17 28 9 15 - - 0.0
06/07:30am - - - - - ENE 17 26 9 14 - - 0.0
06/07:00am - - - - - ENE 9 13 5 7 - - 0.0
06/06:30am - - - - - ENE 7 11 4 6 - - 0.0
06/06:00am - - - - - NE 7 11 4 6 - - 0.0
06/05:30am - - - - - ENE 6 7 3 4 - - 0.0
06/05:00am - - - - - ENE 7 11 4 6 - - 0.0
06/04:30am - - - - - ENE 9 11 5 6 - - 0.0
06/04:00am - - - - - ENE 11 17 6 9 - - 0.0
06/03:30am - - - - - ENE 6 11 3 6 - - 0.0
06/03:00am - - - - - ENE 17 26 9 14 - - 0.0
06/02:30am - - - - - ENE 9 13 5 7 - - 0.0
06/02:00am - - - - - ENE 19 28 10 15 - - 0.0
06/01:30am - - - - - ENE 17 24 9 13 - - 0.0
06/01:00am - - - - - ENE 20 30 11 16 - - 0.0
06/12:30am - - - - - ENE 17 28 9 15 - - 0.0
06/12:00am - - - - - ENE 19 26 10 14 - - 0.0
 
Date/Time
EST
Temp
°C
App
Temp
°C
Dew
Point
°C
Rel
Hum
%
Delta-T
°C
Wind Press
QNH
hPa
Press
MSL
hPa
Rain since
9am
mm
Dir  Spd
km/h
Gust
km/h
Spd
kts
Gust
kts
05/11:30pm - - - - - NE 15 22 8 12 - - 0.0
05/11:00pm - - - - - ENE 17 26 9 14 - - 0.0
05/10:30pm - - - - - ENE 15 30 8 16 - - 0.0
05/10:00pm - - - - - ENE 11 15 6 8 - - 0.0
05/09:30pm - - - - - ENE 9 15 5 8 - - 0.0
05/09:00pm - - - - - ENE 9 13 5 7 - - 0.0
05/08:30pm - - - - - ENE 11 17 6 9 - - 0.0
05/08:00pm - - - - - ENE 9 13 5 7 - - 0.0
05/07:30pm - - - - - ENE 17 26 9 14 - - 0.0
05/07:00pm - - - - - ENE 15 20 8 11 - - 0.0
05/06:30pm - - - - - ENE 20 30 11 16 - - 0.0
05/06:00pm - - - - - ENE 17 24 9 13 - - 0.0
05/05:30pm - - - - - ENE 19 28 10 15 - - 0.0
05/05:00pm - - - - - NE 19 28 10 15 - - 0.0
05/04:30pm - - - - - NE 17 24 9 13 - - 0.0
05/04:00pm - - - - - ENE 15 26 8 14 - - 0.0
05/03:30pm - - - - - NE 17 24 9 13 - - 0.0
05/03:00pm - - - - - ENE 15 24 8 13 - - 0.0
05/02:30pm - - - - - ENE 15 24 8 13 - - 0.0
05/02:00pm - - - - - ENE 20 35 11 19 - - 0.0
05/01:30pm - - - - - ENE 24 35 13 19 - - 0.0
05/01:00pm - - - - - E 19 30 10 16 - - 0.0
05/12:30pm - - - - - E 20 37 11 20 - - 0.0
05/12:00pm - - - - - ESE 20 30 11 16 - - 0.0
05/11:30am - - - - - E 24 39 13 21 - - 0.0
05/11:00am - - - - - ESE 22 33 12 18 - - 0.0
05/10:30am - - - - - E 22 32 12 17 - - 0.0
05/10:00am - - - - - ESE 17 30 9 16 - - 0.0
05/09:30am - - - - - E 15 24 8 13 - - 0.0
05/09:00am - - - - - NE 6 9 3 5 - - 0.0
05/08:30am - - - - - ENE 9 13 5 7 - - 0.0
05/08:00am - - - - - E 9 15 5 8 - - 0.0
05/07:30am - - - - - ENE 2 6 1 3 - - 0.0
05/07:00am - - - - - CALM 0 0 0 0 - - 0.0
05/06:30am - - - - - CALM 0 0 0 0 - - 0.0
05/06:00am - - - - - CALM 0 0 0 0 - - 0.0
05/05:30am - - - - - CALM 0 0 0 0 - - 0.0
05/05:00am - - - - - CALM 0 0 0 0 - - 0.0
05/04:30am - - - - - CALM 0 0 0 0 - - 0.0
05/04:00am - - - - - CALM 0 0 0 0 - - 0.0
05/03:30am - - - - - ENE 4 4 2 2 - - 0.0
05/03:00am - - - - - ENE 4 4 2 2 - - 0.0
05/02:30am - - - - - E 6 6 3 3 - - 0.0
05/02:00am - - - - - NE 7 9 4 5 - - 0.0
05/01:30am - - - - - NE 4 7 2 4 - - 0.0
05/01:00am - - - - - ENE 6 9 3 5 - - 0.0
05/12:30am - - - - - NE 7 9 4 5 - - 0.0
05/12:00am - - - - - NE 6 11 3 6 - - 0.0
 
Date/Time
EST
Temp
°C
App
Temp
°C
Dew
Point
°C
Rel
Hum
%
Delta-T
°C
Wind Press
QNH
hPa
Press
MSL
hPa
Rain since
9am
mm
Dir  Spd
km/h
Gust
km/h
Spd
kts
Gust
kts
04/11:30pm - - - - - ENE 9 17 5 9 - - 0.0
04/11:00pm - - - - - NE 9 13 5 7 - - 0.0
04/10:30pm - - - - - NE 9 15 5 8 - - 0.0
04/10:00pm - - - - - NE 11 15 6 8 - - 0.0
04/09:30pm - - - - - ENE 11 17 6 9 - - 0.0
04/09:00pm - - - - - ENE 13 22 7 12 - - 0.0
04/08:30pm - - - - - E 11 20 6 11 - - 0.0
04/08:00pm - - - - - ENE 11 13 6 7 - - 0.0
04/07:30pm - - - - - ENE 11 17 6 9 - - 0.0
04/07:00pm - - - - - ENE 11 15 6 8 - - 0.0
04/06:30pm - - - - - ENE 17 26 9 14 - - 0.0
04/06:00pm - - - - - ENE 20 32 11 17 - - 0.0
04/05:30pm - - - - - ENE 20 32 11 17 - - 0.0
04/05:00pm - - - - - ENE 20 35 11 19 - - 0.0
04/04:30pm - - - - - NE 20 30 11 16 - - 0.0
04/04:00pm - - - - - NE 17 24 9 13 - - 0.0
04/03:30pm - - - - - ENE 17 24 9 13 - - 0.0
04/03:00pm - - - - - NE 15 20 8 11 - - 0.0
04/02:30pm - - - - - ENE 19 26 10 14 - - 0.0
04/02:00pm - - - - - ENE 17 30 9 16 - - 0.0
04/01:30pm - - - - - NE 20 30 11 16 - - 0.0
04/01:00pm - - - - - E 17 28 9 15 - - 0.0
04/12:30pm - - - - - E 17 26 9 14 - - 0.0
04/12:00pm - - - - - E 20 32 11 17 - - 0.0
04/11:30am - - - - - ESE 13 20 7 11 - - 0.0
04/11:00am - - - - - ENE 13 24 7 13 - - 0.0
04/10:30am - - - - - E 13 24 7 13 - - 0.0

Other formats

Comma delimited format used in spreadsheet applications
http://www.bom.gov.au/fwo/IDQ60801/IDQ60801.94271.axf

JavaScript Object Notation format (JSON) in row-major order
http://www.bom.gov.au/fwo/IDQ60801/IDQ60801.94271.json

Data quality

Most of these data are generated automatically and are frequently updated. Quality checks on data are not normally performed. It is possible for incorrect values to appear. Refer to information at About Latest Weather Observations and please check the disclaimer before using these data.